Time;durP1;ratioP1;P1;durP2;ratioP2;P2;SDS_P1;SDS_P2;PMS_P1;PMS_P2;Temp;Humidity;BMP_temperature;BMP_pressure;BME280_temperature;BME280_humidity;BME280_pressure;Samples;Min_cycle;Max_cycle;Signal;HPM_P1;HPM_P2
2021/01/01 00:01:53;;;;;;;31.65;20.13;;;4.80;99.90;;;;;;6176834;28;20042;-75
2021/01/01 00:04:54;;;;;;;23.70;16.75;;;4.80;99.90;;;;;;6177403;28;20483;-75
2021/01/01 00:07:56;;;;;;;31.77;16.02;;;4.90;99.90;;;;;;6177194;28;20132;-74
2021/01/01 00:10:58;;;;;;;34.88;17.35;;;4.80;99.90;;;;;;6176929;28;20405;-74
2021/01/01 00:13:59;;;;;;;26.55;17.40;;;4.80;99.90;;;;;;6177057;28;20046;-73
2021/01/01 00:17:01;;;;;;;25.00;17.45;;;4.80;99.90;;;;;;6177002;28;20046;-75
2021/01/01 00:20:03;;;;;;;35.67;19.60;;;4.70;99.90;;;;;;6177354;28;20101;-75
2021/01/01 00:23:04;;;;;;;35.88;19.35;;;4.70;99.90;;;;;;6176305;28;20039;-75
2021/01/01 00:26:12;;;;;;;41.78;21.45;;;4.70;99.90;;;;;;6177012;28;20051;-74
2021/01/01 00:29:13;;;;;;;52.10;24.47;;;4.70;99.90;;;;;;6176815;28;20137;-77
2021/01/01 00:32:14;;;;;;;45.35;24.70;;;4.60;99.90;;;;;;6176736;28;20314;-76
2021/01/01 00:35:17;;;;;;;37.15;20.23;;;4.60;99.90;;;;;;6176057;28;20058;-76
2021/01/01 00:38:18;;;;;;;46.15;26.23;;;4.50;99.90;;;;;;6176291;28;20082;-77
2021/01/01 00:41:23;;;;;;;48.20;22.10;;;4.50;99.90;;;;;;6175750;28;20042;-77
2021/01/01 00:44:25;;;;;;;47.42;25.02;;;4.50;99.90;;;;;;6176046;28;20417;-76
2021/01/01 00:47:26;;;;;;;38.67;20.55;;;4.50;99.90;;;;;;6176170;28;20046;-76
2021/01/01 00:50:27;;;;;;;50.78;23.80;;;4.50;99.90;;;;;;6176201;28;20043;-76
2021/01/01 00:53:29;;;;;;;55.20;25.05;;;4.50;99.90;;;;;;6175859;28;20134;-77
2021/01/01 00:56:31;;;;;;;61.75;26.85;;;4.50;99.90;;;;;;6175341;28;20109;-74
2021/01/01 00:59:33;;;;;;;38.97;22.50;;;4.40;99.90;;;;;;6176055;28;20401;-76
2021/01/01 01:02:35;;;;;;;51.40;23.52;;;4.50;99.90;;;;;;6175464;28;20070;-76
2021/01/01 01:05:36;;;;;;;42.97;21.92;;;4.40;99.90;;;;;;6175814;28;20051;-76
2021/01/01 01:08:37;;;;;;;70.38;33.10;;;4.40;99.90;;;;;;6175459;28;20043;-75
2021/01/01 01:11:39;;;;;;;68.00;28.52;;;4.40;99.90;;;;;;6175896;28;20109;-77
2021/01/01 01:14:41;;;;;;;63.00;28.42;;;4.40;99.90;;;;;;6175751;28;20059;-77
2021/01/01 01:17:42;;;;;;;71.65;32.20;;;4.40;99.90;;;;;;6175138;28;20054;-77
2021/01/01 01:20:43;;;;;;;61.90;28.98;;;4.40;99.90;;;;;;6175892;28;20146;-77
2021/01/01 01:23:45;;;;;;;74.45;34.55;;;4.40;99.90;;;;;;6175537;28;20809;-77
2021/01/01 01:26:47;;;;;;;77.07;31.63;;;4.30;99.90;;;;;;6175009;28;20055;-77
2021/01/01 01:29:48;;;;;;;68.57;30.13;;;4.30;99.90;;;;;;6175361;28;20042;-77
2021/01/01 01:32:49;;;;;;;72.57;31.90;;;4.30;99.90;;;;;;6174463;28;20051;-77
2021/01/01 01:35:51;;;;;;;55.42;28.50;;;4.30;99.90;;;;;;6175277;28;20054;-76
2021/01/01 01:38:52;;;;;;;73.45;31.70;;;4.30;99.90;;;;;;6174471;28;20057;-76
2021/01/01 01:41:54;;;;;;;72.10;29.77;;;4.30;99.90;;;;;;6174213;28;20126;-77
2021/01/01 01:44:56;;;;;;;74.72;33.30;;;4.30;99.90;;;;;;6174735;28;20070;-76
2021/01/01 01:47:59;;;;;;;67.95;28.95;;;4.30;99.90;;;;;;6184345;28;20535;-77
2021/01/01 01:51:00;;;;;;;65.75;32.22;;;4.30;99.90;;;;;;6197813;28;20053;-77
2021/01/01 01:54:03;;;;;;;68.20;30.52;;;4.30;99.90;;;;;;6198723;28;20266;-76
2021/01/01 01:57:07;;;;;;;73.28;32.22;;;4.30;99.90;;;;;;6198271;28;20133;-76
2021/01/01 02:00:25;;;;;;;92.32;32.22;;;4.30;99.90;;;;;;6198433;28;20503;-76
2021/01/01 02:03:27;;;;;;;;;;;4.30;99.90;;;;;;6199399;28;20054;-76
2021/01/01 02:06:28;;;;;;;71.38;32.40;;;4.30;99.90;;;;;;6198030;28;19928;-76
2021/01/01 02:09:30;;;;;;;80.07;32.28;;;4.20;99.90;;;;;;6198387;28;20047;-77
2021/01/01 02:12:32;;;;;;;71.70;32.53;;;4.30;99.90;;;;;;6197537;28;20054;-76
2021/01/01 02:15:33;;;;;;;67.55;31.50;;;4.20;99.90;;;;;;6199081;28;20137;-76
2021/01/01 02:18:38;;;;;;;73.38;32.63;;;4.30;99.90;;;;;;6197527;28;20051;-77
2021/01/01 02:21:41;;;;;;;67.45;29.95;;;4.30;99.90;;;;;;6198025;28;20573;-76
2021/01/01 02:24:43;;;;;;;67.47;29.17;;;4.30;99.90;;;;;;6197487;28;20042;-77
2021/01/01 02:27:45;;;;;;;68.40;32.08;;;4.30;99.90;;;;;;6198062;28;20133;-76
2021/01/01 02:30:46;;;;;;;53.40;28.77;;;4.30;99.90;;;;;;6197726;28;20129;-77
2021/01/01 02:33:48;;;;;;;63.03;27.42;;;4.30;99.90;;;;;;6196880;28;20569;-76
2021/01/01 02:36:49;;;;;;;47.40;20.60;;;4.30;99.90;;;;;;6197075;28;20101;-77
2021/01/01 02:39:51;;;;;;;37.35;17.40;;;4.20;99.90;;;;;;6198670;28;20137;-75
2021/01/01 02:42:52;;;;;;;38.65;17.70;;;4.20;99.90;;;;;;6197127;28;20125;-75
2021/01/01 02:45:54;;;;;;;30.52;16.67;;;4.10;99.90;;;;;;6197419;28;20054;-76
2021/01/01 02:48:55;;;;;;;26.50;14.00;;;4.10;99.90;;;;;;6197281;28;20046;-76
2021/01/01 02:51:56;;;;;;;27.10;14.75;;;4.00;99.90;;;;;;6197496;28;20133;-76
2021/01/01 02:54:59;;;;;;;28.92;14.55;;;4.00;99.90;;;;;;6197221;28;20057;-76
2021/01/01 02:58:00;;;;;;;28.55;14.50;;;3.90;99.90;;;;;;6196967;28;20526;-75
2021/01/01 03:01:02;;;;;;;32.88;15.23;;;3.90;99.90;;;;;;6195582;28;20419;-76
2021/01/01 03:04:03;;;;;;;25.02;13.32;;;3.90;99.90;;;;;;6197050;28;20496;-76
2021/01/01 03:07:05;;;;;;;32.83;15.88;;;3.90;99.90;;;;;;6196626;28;20042;-76
2021/01/01 03:10:09;;;;;;;28.15;13.80;;;3.90;99.90;;;;;;6196940;28;20125;-76
2021/01/01 03:13:10;;;;;;;29.95;14.07;;;4.00;99.90;;;;;;6196235;28;20129;-76
2021/01/01 03:16:11;;;;;;;24.42;14.27;;;4.00;99.90;;;;;;6198064;28;20085;-75
2021/01/01 03:19:12;;;;;;;26.48;14.45;;;3.90;99.90;;;;;;6197106;28;20133;-76
2021/01/01 03:22:14;;;;;;;21.60;12.85;;;3.90;99.90;;;;;;6196555;28;20143;-76
2021/01/01 03:25:16;;;;;;;34.40;15.43;;;3.90;99.90;;;;;;6197008;28;20046;-76
2021/01/01 03:28:17;;;;;;;32.20;13.75;;;3.90;99.90;;;;;;6196417;28;20412;-75
2021/01/01 03:31:19;;;;;;;24.33;12.15;;;3.90;99.90;;;;;;6196755;28;20489;-76
2021/01/01 03:34:20;;;;;;;23.17;11.27;;;3.80;99.90;;;;;;6196768;28;20096;-76
2021/01/01 03:37:21;;;;;;;20.35;12.25;;;3.80;99.90;;;;;;6197614;28;20051;-75
2021/01/01 03:40:23;;;;;;;22.45;12.50;;;3.70;99.90;;;;;;6197102;28;20409;-75
2021/01/01 03:43:25;;;;;;;17.67;10.85;;;3.70;99.90;;;;;;6196938;28;20591;-75
2021/01/01 03:46:26;;;;;;;19.52;10.45;;;3.70;99.90;;;;;;6196503;28;20042;-75
2021/01/01 03:49:27;;;;;;;21.05;10.35;;;3.70;99.90;;;;;;6196992;28;20073;-75
2021/01/01 03:52:29;;;;;;;17.27;10.32;;;3.60;99.90;;;;;;6197870;28;20133;-75
2021/01/01 03:55:31;;;;;;;19.27;10.57;;;3.70;99.90;;;;;;6198573;28;20042;-75
2021/01/01 03:58:33;;;;;;;16.00;8.38;;;3.60;99.90;;;;;;6197401;28;20064;-75
2021/01/01 04:01:34;;;;;;;15.43;9.30;;;3.60;99.90;;;;;;6198435;28;20042;-75
2021/01/01 04:04:36;;;;;;;17.27;10.38;;;3.60;99.90;;;;;;6210677;28;20042;-74
2021/01/01 04:07:38;;;;;;;16.63;9.13;;;3.60;99.90;;;;;;6220460;28;20050;-75
2021/01/01 04:10:40;;;;;;;14.18;8.10;;;3.60;99.90;;;;;;6223340;28;20077;-75
2021/01/01 04:13:41;;;;;;;14.80;7.97;;;3.60;99.90;;;;;;6231315;28;20109;-75
2021/01/01 04:16:46;;;;;;;15.02;8.35;;;3.60;99.90;;;;;;6232427;28;20090;-75
2021/01/01 04:19:47;;;;;;;14.02;7.72;;;3.60;99.90;;;;;;6232043;28;20030;-74
2021/01/01 04:22:48;;;;;;;12.48;7.03;;;3.50;99.90;;;;;;6214282;28;20136;-74
2021/01/01 04:25:50;;;;;;;10.57;7.10;;;3.60;99.90;;;;;;6201761;28;20398;-74
2021/01/01 04:28:52;;;;;;;11.70;7.05;;;3.60;99.90;;;;;;6202214;28;20481;-74
2021/01/01 04:31:53;;;;;;;14.02;8.18;;;3.50;99.90;;;;;;6201180;28;20090;-75
2021/01/01 04:34:54;;;;;;;16.67;8.57;;;3.50;99.90;;;;;;6200210;28;20134;-74
2021/01/01 04:37:55;;;;;;;13.43;7.68;;;3.50;99.90;;;;;;6199952;28;20472;-75
2021/01/01 04:40:58;;;;;;;12.27;7.05;;;3.40;99.90;;;;;;6200273;28;20656;-75
2021/01/01 04:44:00;;;;;;;12.57;7.22;;;3.40;99.90;;;;;;6200751;28;20100;-74
2021/01/01 04:47:03;;;;;;;14.40;8.55;;;3.40;99.90;;;;;;6200295;28;20050;-74
2021/01/01 04:50:06;;;;;;;14.53;8.00;;;3.40;99.90;;;;;;6200141;28;20042;-75
2021/01/01 04:53:09;;;;;;;10.70;7.25;;;3.40;99.90;;;;;;6199599;28;20412;-75
2021/01/01 04:56:11;;;;;;;10.63;6.07;;;3.40;99.90;;;;;;6200455;28;20054;-75
2021/01/01 04:59:15;;;;;;;12.80;7.00;;;3.40;99.90;;;;;;6199509;28;20065;-75
2021/01/01 05:02:16;;;;;;;12.00;7.83;;;3.40;99.90;;;;;;6200164;28;20046;-75
2021/01/01 05:05:26;;;;;;;15.70;8.02;;;3.40;99.90;;;;;;6199774;28;20055;-75
2021/01/01 05:08:27;;;;;;;11.20;6.67;;;3.30;99.90;;;;;;6199793;28;20580;-75
2021/01/01 05:11:29;;;;;;;13.10;8.47;;;3.30;99.90;;;;;;6199535;28;20428;-75
2021/01/01 05:14:31;;;;;;;11.57;6.10;;;3.30;99.90;;;;;;6199555;28;20184;-74
2021/01/01 05:17:33;;;;;;;9.40;6.40;;;3.20;99.90;;;;;;6199119;28;20057;-74
2021/01/01 05:20:35;;;;;;;14.93;7.93;;;3.20;99.90;;;;;;6199771;28;20226;-75
2021/01/01 05:23:41;;;;;;;11.70;7.00;;;3.10;99.90;;;;;;6198592;28;20054;-75
2021/01/01 05:26:48;;;;;;;10.23;6.87;;;3.00;99.90;;;;;;6198866;28;20428;-75
2021/01/01 05:29:54;;;;;;;10.97;6.40;;;2.90;99.90;;;;;;6199035;28;20643;-75
2021/01/01 05:32:56;;;;;;;14.00;7.40;;;2.80;99.90;;;;;;6198580;28;20046;-74
2021/01/01 05:36:06;;;;;;;12.00;6.90;;;2.80;99.90;;;;;;6199162;28;20424;-75
2021/01/01 05:39:20;;;;;;;12.77;7.30;;;2.70;99.90;;;;;;6198999;28;20061;-74
2021/01/01 05:42:22;;;;;;;13.73;7.20;;;2.70;99.90;;;;;;6198326;28;20073;-74
2021/01/01 05:45:28;;;;;;;15.67;8.43;;;2.70;99.90;;;;;;6198293;28;20137;-74
2021/01/01 05:48:29;;;;;;;13.07;6.87;;;2.80;99.90;;;;;;6197848;28;20081;-75
2021/01/01 05:51:30;;;;;;;11.37;7.83;;;2.80;99.90;;;;;;6198364;28;20439;-75
2021/01/01 05:54:32;;;;;;;11.83;7.67;;;2.80;99.90;;;;;;6198556;28;20042;-75
2021/01/01 05:57:35;;;;;;;14.90;8.33;;;2.80;99.90;;;;;;6198205;28;20134;-75
2021/01/01 06:00:37;;;;;;;18.70;9.23;;;2.70;99.90;;;;;;6198115;28;20046;-74
2021/01/01 06:03:38;;;;;;;20.37;8.80;;;2.60;99.90;;;;;;6198222;28;20484;-75
2021/01/01 06:06:43;;;;;;;17.07;9.97;;;2.60;99.90;;;;;;6197944;28;20557;-75
2021/01/01 06:09:45;;;;;;;19.07;9.73;;;2.60;99.90;;;;;;6197983;28;20054;-74
2021/01/01 06:12:52;;;;;;;18.00;9.97;;;2.60;99.90;;;;;;6195440;28;20054;-74
2021/01/01 06:15:57;;;;;;;17.27;10.20;;;2.60;99.90;;;;;;6198377;28;20498;-75
2021/01/01 06:19:10;;;;;;;17.90;9.70;;;2.60;99.90;;;;;;6197808;28;20137;-75
2021/01/01 06:22:17;;;;;;;18.30;10.27;;;2.50;99.90;;;;;;6197839;28;20568;-75
2021/01/01 06:25:18;;;;;;;23.40;11.93;;;2.50;99.90;;;;;;6198223;28;20129;-76
2021/01/01 06:28:21;;;;;;;23.80;11.80;;;2.50;99.90;;;;;;6197287;28;20053;-75
2021/01/01 06:31:23;;;;;;;18.97;11.30;;;2.50;99.90;;;;;;6197837;28;20523;-76
2021/01/01 06:34:28;;;;;;;16.97;10.07;;;2.50;99.90;;;;;;6197283;28;20507;-76
2021/01/01 06:37:38;;;;;;;23.70;12.80;;;2.40;99.90;;;;;;6197402;28;20439;-75
2021/01/01 06:40:39;;;;;;;25.63;13.67;;;2.40;99.90;;;;;;6197114;28;20152;-75
2021/01/01 06:43:52;;;;;;;26.87;13.47;;;2.40;99.90;;;;;;6197846;28;20057;-76
2021/01/01 06:46:53;;;;;;;27.40;13.50;;;2.40;99.90;;;;;;6197472;28;20069;-75
2021/01/01 06:49:54;;;;;;;25.47;15.43;;;2.50;99.90;;;;;;6197458;28;20053;-75
2021/01/01 06:53:03;;;;;;;25.27;13.70;;;2.40;99.90;;;;;;6197522;28;20057;-76
2021/01/01 06:56:07;;;;;;;;;;;2.40;99.90;;;;;;6198813;28;20081;-76
2021/01/01 06:59:11;;;;;;;27.67;13.77;;;2.50;99.90;;;;;;6198287;28;20016;-76
2021/01/01 07:02:33;;;;;;;29.30;14.67;;;2.40;99.90;;;;;;6197388;28;20112;-76
2021/01/01 07:05:34;;;;;;;29.43;14.70;;;2.40;99.90;;;;;;6187115;28;20125;-76
2021/01/01 07:08:43;;;;;;;24.20;13.63;;;2.40;99.90;;;;;;6197963;28;20134;-77
2021/01/01 07:11:45;;;;;;;29.17;15.40;;;2.50;99.90;;;;;;6197130;28;20467;-76
2021/01/01 07:14:47;;;;;;;27.33;13.90;;;2.50;99.90;;;;;;6197389;28;20050;-76
2021/01/01 07:17:49;;;;;;;36.90;16.77;;;2.50;99.90;;;;;;6198209;28;20046;-76
2021/01/01 07:20:50;;;;;;;32.63;15.53;;;2.60;99.90;;;;;;6197800;28;20046;-75
2021/01/01 07:23:52;;;;;;;35.57;16.80;;;2.60;99.90;;;;;;6197570;28;20496;-76
2021/01/01 07:26:53;;;;;;;30.63;16.53;;;2.60;99.90;;;;;;6196430;28;20054;-76
2021/01/01 07:30:08;;;;;;;29.00;17.30;;;2.60;99.90;;;;;;6196685;28;20082;-76
2021/01/01 07:33:11;;;;;;;30.87;15.57;;;2.60;99.90;;;;;;6196369;28;20046;-77
2021/01/01 07:36:13;;;;;;;29.13;13.87;;;2.60;99.90;;;;;;6197549;28;20166;-75
2021/01/01 07:39:17;;;;;;;31.53;14.90;;;2.70;99.90;;;;;;6197711;28;20165;-76
2021/01/01 07:42:18;;;;;;;31.43;14.27;;;2.70;99.90;;;;;;6196803;28;20046;-76
2021/01/01 07:45:21;;;;;;;30.67;14.87;;;2.70;99.90;;;;;;6196711;28;20054;-76
2021/01/01 07:48:22;;;;;;;33.53;15.53;;;2.70;99.90;;;;;;6199751;28;20534;-75
2021/01/01 07:51:23;;;;;;;33.33;15.93;;;2.70;99.90;;;;;;6201373;28;20141;-76
2021/01/01 07:54:25;;;;;;;31.30;16.73;;;2.80;99.90;;;;;;6201636;28;20054;-76
2021/01/01 07:57:26;;;;;;;31.60;15.93;;;2.80;99.90;;;;;;6201155;28;20047;-77
2021/01/01 08:00:30;;;;;;;30.77;17.50;;;2.80;99.90;;;;;;6202755;28;20078;-75
2021/01/01 08:03:32;;;;;;;34.53;18.20;;;2.90;99.90;;;;;;6202450;28;20161;-76
2021/01/01 08:06:36;;;;;;;31.70;15.50;;;2.90;99.90;;;;;;6201399;28;20141;-76
2021/01/01 08:09:45;;;;;;;27.87;15.40;;;2.90;99.90;;;;;;6200911;28;20592;-75
2021/01/01 08:12:49;;;;;;;24.33;15.00;;;2.90;99.90;;;;;;6217451;28;20046;-77
2021/01/01 08:15:53;;;;;;;31.70;15.20;;;2.90;99.90;;;;;;6216060;28;20131;-77
2021/01/01 08:18:54;;;;;;;34.17;15.40;;;3.00;99.90;;;;;;6219738;28;20052;-77
2021/01/01 08:22:07;;;;;;;48.73;17.03;;;3.00;99.90;;;;;;6222104;28;20057;-75
2021/01/01 08:25:11;;;;;;;32.73;17.90;;;3.10;99.90;;;;;;6216926;28;20080;-75
2021/01/01 08:28:17;;;;;;;32.10;16.67;;;3.10;99.90;;;;;;6220032;28;20123;-76
2021/01/01 08:31:21;;;;;;;33.67;16.10;;;3.10;99.90;;;;;;6219895;28;20042;-76
2021/01/01 08:34:23;;;;;;;31.83;15.80;;;3.20;99.90;;;;;;6217088;28;20054;-76
2021/01/01 08:37:26;;;;;;;37.15;18.27;;;3.10;99.90;;;;;;6221089;28;20037;-76
2021/01/01 08:40:28;;;;;;;32.40;15.17;;;3.10;99.90;;;;;;6222483;28;20054;-75
2021/01/01 08:43:30;;;;;;;38.33;18.77;;;3.20;99.90;;;;;;6218526;28;20041;-76
2021/01/01 08:46:32;;;;;;;35.07;17.00;;;3.20;99.90;;;;;;6220348;28;20100;-76
2021/01/01 08:49:34;;;;;;;36.77;18.27;;;3.20;99.90;;;;;;6222575;28;20050;-75
2021/01/01 08:52:35;;;;;;;34.10;18.20;;;3.20;99.90;;;;;;6221438;28;20066;-75
2021/01/01 08:55:37;;;;;;;31.60;17.17;;;3.20;99.90;;;;;;6220259;28;20136;-75
2021/01/01 08:58:38;;;;;;;30.53;15.57;;;3.20;99.90;;;;;;6218053;28;20052;-75
2021/01/01 09:01:41;;;;;;;35.23;16.67;;;3.20;99.90;;;;;;6218655;28;20058;-76
2021/01/01 09:04:48;;;;;;;41.07;18.43;;;3.20;99.90;;;;;;6218947;28;20535;-75
2021/01/01 09:08:08;;;;;;;29.63;15.50;;;3.30;99.90;;;;;;6222303;28;20140;-76
2021/01/01 09:11:20;;;;;;;36.10;18.40;;;3.40;99.90;;;;;;6220557;28;20176;-76
2021/01/01 09:14:21;;;;;;;40.03;20.07;;;3.50;99.90;;;;;;6218224;28;20411;-77
2021/01/01 09:17:25;;;;;;;35.95;17.58;;;3.60;99.90;;;;;;6216160;28;20134;-77
2021/01/01 09:20:26;;;;;;;39.50;19.05;;;3.70;99.90;;;;;;6218468;28;20082;-75
2021/01/01 09:23:29;;;;;;;38.38;18.90;;;3.60;99.90;;;;;;6220912;28;20418;-75
2021/01/01 09:26:31;;;;;;;40.92;18.98;;;3.70;99.90;;;;;;6217957;28;20042;-76
2021/01/01 09:29:32;;;;;;;34.65;17.63;;;3.80;99.90;;;;;;6216221;28;20081;-76
2021/01/01 09:32:35;;;;;;;34.15;18.90;;;3.80;99.90;;;;;;6220354;28;20042;-76
2021/01/01 09:35:36;;;;;;;39.20;19.27;;;4.00;99.90;;;;;;6217911;28;20138;-76
2021/01/01 09:38:37;;;;;;;37.47;17.10;;;4.00;99.90;;;;;;6220145;28;20124;-76
2021/01/01 09:41:40;;;;;;;36.17;20.27;;;4.00;99.90;;;;;;6215612;28;20662;-76
2021/01/01 09:44:41;;;;;;;40.45;19.23;;;4.00;99.90;;;;;;6217662;28;20099;-75
2021/01/01 09:47:43;;;;;;;36.92;20.15;;;4.00;99.90;;;;;;6216479;28;20057;-75
2021/01/01 09:50:44;;;;;;;30.30;18.17;;;3.90;99.90;;;;;;6217243;28;20156;-75
2021/01/01 09:53:46;;;;;;;36.83;20.45;;;3.80;99.90;;;;;;6214754;28;20054;-76
2021/01/01 09:56:47;;;;;;;37.95;19.42;;;3.70;99.90;;;;;;6220170;28;20054;-76
2021/01/01 09:59:48;;;;;;;33.00;18.52;;;3.70;99.90;;;;;;6220201;28;20049;-76
2021/01/01 10:02:51;;;;;;;39.03;18.27;;;3.60;99.90;;;;;;6217854;28;20057;-76
2021/01/01 10:05:52;;;;;;;39.15;18.85;;;3.60;99.90;;;;;;6211050;28;20065;-76
2021/01/01 10:08:53;;;;;;;42.05;19.02;;;3.60;99.90;;;;;;6216495;28;20536;-75
2021/01/01 10:11:57;;;;;;;52.25;25.15;;;3.50;99.90;;;;;;6216782;28;20137;-76
2021/01/01 10:14:59;;;;;;;47.60;21.52;;;3.70;99.90;;;;;;6211940;28;20078;-76
2021/01/01 10:18:02;;;;;;;49.17;24.05;;;3.70;99.90;;;;;;6216454;28;20096;-76
2021/01/01 10:21:03;;;;;;;40.85;21.13;;;3.70;99.90;;;;;;6214258;28;20049;-76
2021/01/01 10:24:05;;;;;;;37.58;18.17;;;3.90;99.90;;;;;;6218824;28;20073;-76
2021/01/01 10:27:06;;;;;;;38.45;20.15;;;3.90;99.90;;;;;;6212663;28;20096;-76
2021/01/01 10:30:09;;;;;;;38.30;19.42;;;4.10;99.90;;;;;;6217573;28;20071;-77
2021/01/01 10:33:11;;;;;;;31.98;18.20;;;4.10;99.90;;;;;;6216363;28;20046;-77
2021/01/01 10:36:12;;;;;;;34.15;19.90;;;4.20;99.90;;;;;;6217190;28;20054;-77
2021/01/01 10:39:14;;;;;;;35.30;20.50;;;4.20;99.90;;;;;;6219091;28;20153;-77
2021/01/01 10:42:15;;;;;;;31.75;18.45;;;4.20;99.90;;;;;;6219016;28;20038;-76
2021/01/01 10:45:17;;;;;;;32.50;18.90;;;4.20;99.90;;;;;;6211510;28;20042;-78
2021/01/01 10:48:19;;;;;;;32.53;18.55;;;4.20;99.90;;;;;;6219034;28;20096;-76
2021/01/01 10:51:21;;;;;;;36.53;19.70;;;4.10;99.90;;;;;;6216741;28;20092;-76
2021/01/01 10:54:23;;;;;;;32.92;18.98;;;4.20;99.90;;;;;;6213961;28;20059;-77
2021/01/01 10:57:24;;;;;;;34.05;17.27;;;4.30;99.90;;;;;;6217930;28;20054;-77
2021/01/01 11:00:25;;;;;;;31.98;17.83;;;4.50;99.90;;;;;;6219308;28;20104;-76
2021/01/01 11:03:27;;;;;;;32.13;19.17;;;4.70;99.90;;;;;;6218294;28;20415;-77
2021/01/01 11:06:29;;;;;;;35.03;18.25;;;5.10;99.90;;;;;;6219807;28;20049;-76
2021/01/01 11:09:30;;;;;;;31.75;16.27;;;5.50;99.90;;;;;;6210333;28;20584;-76
2021/01/01 11:12:33;;;;;;;24.25;15.52;;;6.20;99.90;;;;;;6217504;28;20443;-77
2021/01/01 12:19:41;;;;;;;16.20;10.75;;;6.50;92.50;;;;;;6215141;28;20045;-77
2021/01/01 12:22:41;;;;;;;16.55;11.63;;;6.50;92.80;;;;;;6214535;28;20576;-76
2021/01/01 12:25:45;;;;;;;36.17;22.05;;;6.50;93.00;;;;;;6215060;28;20061;-77
2021/01/01 12:28:47;;;;;;;45.60;25.25;;;6.50;93.40;;;;;;6217230;28;20495;-77
2021/01/01 12:31:48;;;;;;;25.27;15.70;;;6.50;93.40;;;;;;6215944;28;20176;-77
2021/01/01 12:34:49;;;;;;;19.13;13.70;;;6.50;92.00;;;;;;6218195;28;20050;-76
2021/01/01 12:37:59;;;;;;;17.08;11.02;;;6.50;91.70;;;;;;6216918;28;20085;-77
2021/01/01 12:41:03;;;;;;;16.77;9.77;;;6.40;90.50;;;;;;6214552;28;20768;-76
2021/01/01 12:44:05;;;;;;;19.20;12.98;;;6.30;90.20;;;;;;6215386;28;20045;-77
2021/01/01 12:47:06;;;;;;;16.35;11.25;;;6.10;91.20;;;;;;6215878;28;20087;-77
2021/01/01 12:50:08;;;;;;;12.60;9.98;;;6.00;92.20;;;;;;6216076;28;20050;-77
2021/01/01 12:53:09;;;;;;;17.52;11.00;;;5.90;92.60;;;;;;6215853;28;20073;-77
2021/01/01 12:56:11;;;;;;;14.27;10.27;;;5.90;92.30;;;;;;6221714;28;20137;-77
2021/01/01 12:59:13;;;;;;;36.00;22.35;;;5.90;92.80;;;;;;6221470;28;20541;-77
2021/01/01 13:02:14;;;;;;;30.92;16.75;;;6.10;95.20;;;;;;6220711;28;20136;-79
2021/01/01 13:05:15;;;;;;;16.85;10.43;;;6.50;92.90;;;;;;6218729;28;20065;-77
2021/01/01 13:08:17;;;;;;;21.50;12.07;;;6.80;92.10;;;;;;6215896;28;20054;-77
2021/01/01 13:11:19;;;;;;;23.02;14.95;;;7.20;91.20;;;;;;6216196;28;20518;-78
2021/01/01 13:14:20;;;;;;;42.13;27.25;;;7.50;90.00;;;;;;6213375;28;20046;-78
2021/01/01 13:17:22;;;;;;;11.48;8.52;;;7.90;88.60;;;;;;6216154;28;23227;-78
2021/01/01 13:20:23;;;;;;;14.63;9.57;;;8.10;84.10;;;;;;6212837;28;20085;-78
2021/01/01 13:23:24;;;;;;;26.80;16.67;;;8.00;84.50;;;;;;6215830;28;20043;-78
2021/01/01 13:26:28;;;;;;;12.50;9.98;;;8.00;85.20;;;;;;6218618;28;20042;-77
2021/01/01 13:29:30;;;;;;;15.43;10.52;;;8.00;84.30;;;;;;6214850;28;20054;-78
2021/01/01 13:32:31;;;;;;;18.48;11.15;;;7.90;84.70;;;;;;6209922;28;20655;-77
2021/01/01 13:35:32;;;;;;;15.00;9.88;;;7.60;83.80;;;;;;6215764;28;20092;-78
2021/01/01 13:38:33;;;;;;;11.27;8.88;;;7.40;83.00;;;;;;6219943;28;20545;-78
2021/01/01 13:41:38;;;;;;;12.93;9.40;;;7.20;82.70;;;;;;6209338;28;20470;-77
2021/01/01 13:44:39;;;;;;;13.23;8.82;;;7.00;84.70;;;;;;6218741;28;20056;-78
2021/01/01 13:47:41;;;;;;;14.18;9.32;;;6.70;85.10;;;;;;6215768;28;20057;-78
2021/01/01 13:50:45;;;;;;;11.88;8.63;;;6.60;86.40;;;;;;6215382;28;20056;-78
2021/01/01 13:53:46;;;;;;;13.50;10.75;;;6.50;86.50;;;;;;6217762;28;20095;-78
2021/01/01 13:56:51;;;;;;;13.93;10.40;;;6.40;87.50;;;;;;6208674;28;20042;-78
2021/01/01 13:59:53;;;;;;;12.77;9.52;;;6.30;87.10;;;;;;6212120;28;20049;-78
2021/01/01 14:02:55;;;;;;;17.02;10.43;;;6.10;87.30;;;;;;6213354;28;20559;-77
2021/01/01 14:05:56;;;;;;;12.52;9.07;;;6.00;87.50;;;;;;6217383;28;20054;-77
2021/01/01 14:08:58;;;;;;;13.27;9.93;;;5.90;87.70;;;;;;6211670;28;20153;-77
2021/01/01 14:12:00;;;;;;;15.45;10.95;;;5.80;88.20;;;;;;6217529;28;20104;-78
2021/01/01 14:15:02;;;;;;;13.38;9.25;;;5.70;89.10;;;;;;6213998;28;20133;-78
2021/01/01 14:18:04;;;;;;;15.25;9.63;;;5.50;88.50;;;;;;6211851;28;20048;-77
2021/01/01 14:21:05;;;;;;;20.30;11.45;;;5.50;89.60;;;;;;6214372;28;20049;-77
2021/01/01 14:24:07;;;;;;;13.27;9.65;;;5.40;90.30;;;;;;6217254;28;20042;-77
2021/01/01 14:27:09;;;;;;;14.35;9.55;;;5.40;90.50;;;;;;6213999;28;20053;-77
2021/01/01 14:30:12;;;;;;;14.75;9.35;;;5.30;90.30;;;;;;6216081;28;20038;-77
2021/01/01 14:33:13;;;;;;;18.42;11.85;;;5.30;90.50;;;;;;6213685;28;20062;-77
2021/01/01 14:36:15;;;;;;;15.48;10.48;;;5.20;90.90;;;;;;6216679;28;20132;-78
2021/01/01 14:39:16;;;;;;;15.88;10.13;;;5.20;90.60;;;;;;6216653;28;20376;-77
2021/01/01 14:42:18;;;;;;;14.15;8.18;;;5.20;91.50;;;;;;6214433;28;20129;-77
2021/01/01 14:45:20;;;;;;;15.30;8.25;;;5.20;92.00;;;;;;6208907;28;20116;-78
2021/01/01 14:48:21;;;;;;;14.25;9.60;;;5.20;92.10;;;;;;6214013;28;20054;-78
2021/01/01 14:51:23;;;;;;;15.02;9.35;;;5.20;92.10;;;;;;6205891;28;20576;-78
2021/01/01 14:54:27;;;;;;;15.57;10.57;;;5.10;92.30;;;;;;6214132;28;20042;-79
2021/01/01 14:57:29;;;;;;;15.82;10.98;;;5.10;92.60;;;;;;6210967;28;20041;-78
2021/01/01 15:00:31;;;;;;;15.35;11.15;;;5.10;93.00;;;;;;6210107;28;20084;-78
2021/01/01 15:03:32;;;;;;;14.02;10.02;;;5.00;93.20;;;;;;6210473;28;20419;-78
2021/01/01 15:06:33;;;;;;;17.17;11.48;;;5.00;93.50;;;;;;6219179;28;20073;-77
2021/01/01 15:09:34;;;;;;;14.50;9.93;;;5.00;94.00;;;;;;6217918;28;20053;-77
2021/01/01 15:12:37;;;;;;;13.63;9.88;;;4.90;94.50;;;;;;6217501;28;20080;-78
2021/01/01 15:15:38;;;;;;;13.35;10.32;;;4.90;94.70;;;;;;6210985;28;20049;-77
2021/01/01 15:18:39;;;;;;;17.05;11.73;;;4.80;94.70;;;;;;6215476;28;20447;-77
2021/01/01 15:21:41;;;;;;;16.02;10.25;;;4.80;95.10;;;;;;6218437;28;20132;-77
2021/01/01 15:24:43;;;;;;;17.05;11.38;;;4.70;95.50;;;;;;6216408;28;20099;-77
2021/01/01 15:27:45;;;;;;;17.33;10.95;;;4.70;95.70;;;;;;6213405;28;20775;-78
2021/01/01 15:30:46;;;;;;;16.33;9.93;;;4.60;96.00;;;;;;6215915;28;20140;-77
2021/01/01 15:33:47;;;;;;;18.23;11.68;;;4.60;96.30;;;;;;6212917;28;20113;-77
2021/01/01 15:36:49;;;;;;;18.48;11.65;;;4.60;96.40;;;;;;6204475;28;20050;-77
2021/01/01 15:39:50;;;;;;;15.20;9.88;;;4.50;96.50;;;;;;6219563;28;20104;-77
2021/01/01 15:42:52;;;;;;;16.75;10.90;;;4.50;96.40;;;;;;6218435;28;20054;-76
2021/01/01 15:45:53;;;;;;;17.35;11.40;;;4.40;96.70;;;;;;6208495;28;20056;-78
2021/01/01 15:48:55;;;;;;;18.13;11.55;;;4.40;97.00;;;;;;6215200;28;20042;-77
2021/01/01 15:51:56;;;;;;;14.35;10.57;;;4.40;97.10;;;;;;6213690;28;20119;-77
2021/01/01 15:54:57;;;;;;;19.88;11.57;;;4.40;97.20;;;;;;6211306;28;20042;-77
2021/01/01 15:57:59;;;;;;;18.50;11.70;;;4.40;97.30;;;;;;6218576;28;20137;-77
2021/01/01 16:01:01;;;;;;;17.63;11.05;;;4.30;97.20;;;;;;6213638;28;20049;-76
2021/01/01 16:04:03;;;;;;;17.65;10.98;;;4.30;97.50;;;;;;6208123;28;20161;-77
2021/01/01 16:07:04;;;;;;;16.50;11.50;;;4.20;97.50;;;;;;6214978;28;20069;-77
2021/01/01 16:10:06;;;;;;;15.38;11.05;;;4.20;97.70;;;;;;6219626;28;20177;-77
2021/01/01 16:13:09;;;;;;;19.60;12.65;;;4.20;97.80;;;;;;6219031;28;20046;-77
2021/01/01 16:16:10;;;;;;;17.67;10.90;;;4.20;98.00;;;;;;6214637;28;20136;-77
2021/01/01 16:19:11;;;;;;;19.15;12.63;;;4.20;98.00;;;;;;6219338;28;20445;-77
2021/01/01 16:22:13;;;;;;;24.67;10.32;;;4.20;98.10;;;;;;6221967;28;20049;-78
2021/01/01 16:25:14;;;;;;;18.10;11.38;;;4.10;98.30;;;;;;6218119;28;20046;-77
2021/01/01 16:28:17;;;;;;;17.05;10.57;;;4.10;98.50;;;;;;6214326;28;20364;-76
2021/01/01 16:31:18;;;;;;;20.42;12.85;;;4.00;98.70;;;;;;6215840;28;20049;-77
2021/01/01 16:34:21;;;;;;;18.65;11.77;;;4.00;98.70;;;;;;6219058;28;20128;-77
2021/01/01 16:37:22;;;;;;;23.20;13.00;;;4.00;98.90;;;;;;6222019;28;20053;-77
2021/01/01 16:40:23;;;;;;;16.48;11.20;;;4.00;98.90;;;;;;6219889;28;20085;-78
2021/01/01 16:43:27;;;;;;;15.77;12.57;;;4.00;98.70;;;;;;6216658;28;20037;-75
2021/01/01 16:46:30;;;;;;;15.15;10.70;;;3.90;98.80;;;;;;6217034;28;20041;-75